createdAt,value
2019-04-26T00:00:51.189Z,19.23
2019-04-26T00:03:31.771Z,20.30
2019-04-26T00:06:05.847Z,20.97
2019-04-26T00:08:39.072Z,19.40
2019-04-26T00:11:29.093Z,19.20
2019-04-26T00:14:12.365Z,20.07
2019-04-26T00:16:54.971Z,19.63
2019-04-26T00:19:27.199Z,20.03
2019-04-26T00:21:59.444Z,19.93
2019-04-26T00:24:32.100Z,20.83
2019-04-26T00:27:04.124Z,20.40
2019-04-26T00:29:36.066Z,19.87
2019-04-26T00:32:08.168Z,20.27
2019-04-26T00:34:40.204Z,20.37
2019-04-26T00:37:13.157Z,19.17
2019-04-26T00:39:46.173Z,20.17
2019-04-26T00:42:18.619Z,20.13
2019-04-26T00:44:51.321Z,19.63
2019-04-26T00:47:26.058Z,20.90
2019-04-26T00:50:00.042Z,20.03
2019-04-26T00:52:33.079Z,20.27
2019-04-26T00:55:06.638Z,21.17
2019-04-26T00:57:39.017Z,20.40
2019-04-26T01:00:13.023Z,20.07
2019-04-26T01:02:47.341Z,19.37
2019-04-26T01:05:19.297Z,20.83
2019-04-26T01:07:52.897Z,20.13
2019-04-26T01:10:25.802Z,19.77
2019-04-26T01:12:57.917Z,19.77
2019-04-26T01:15:29.860Z,20.50
2019-04-26T01:18:01.823Z,20.50
2019-04-26T01:20:36.325Z,20.07
2019-04-26T01:23:13.186Z,20.10
2019-04-26T01:26:07.533Z,21.50
2019-04-26T01:28:46.745Z,20.20
2019-04-26T01:31:19.957Z,20.63
2019-04-26T01:33:52.620Z,19.43
2019-04-26T01:36:28.496Z,21.27
2019-04-26T01:39:09.601Z,19.47
2019-04-26T01:41:43.292Z,19.53
2019-04-26T01:44:17.285Z,19.73
2019-04-26T01:46:50.688Z,21.33
2019-04-26T01:49:24.263Z,19.30
2019-04-26T01:52:06.344Z,19.60
2019-04-26T01:54:42.986Z,19.70
2019-04-26T01:57:16.461Z,20.93
2019-04-26T01:59:55.008Z,20.43
2019-04-26T02:02:34.823Z,20.20
2019-04-26T02:05:12.108Z,20.33
2019-04-26T02:07:44.441Z,20.57
2019-04-26T02:10:20.581Z,20.93
2019-04-26T02:12:54.745Z,21.20
2019-04-26T02:15:31.281Z,20.67
2019-04-26T02:18:04.277Z,21.17
2019-04-26T02:20:54.713Z,20.50
2019-04-26T02:23:44.202Z,20.80
2019-04-26T02:26:36.813Z,20.87
2019-04-26T02:29:26.604Z,20.93
2019-04-26T02:32:03.742Z,21.90
2019-04-26T02:34:38.304Z,20.67
2019-04-26T02:37:13.847Z,20.63
2019-04-26T02:40:06.940Z,20.97
2019-04-26T02:42:42.979Z,20.73
2019-04-26T02:45:58.246Z,21.93
2019-04-26T02:48:45.123Z,21.73
2019-04-26T02:51:29.129Z,21.00
2019-04-26T02:54:22.616Z,21.13
2019-04-26T02:56:59.082Z,21.63
2019-04-26T02:59:38.174Z,21.30
2019-04-26T03:02:14.445Z,21.53
2019-04-26T03:04:50.888Z,21.40
2019-04-26T03:07:32.078Z,21.07
2019-04-26T03:10:06.944Z,22.27
2019-04-26T03:12:43.275Z,21.60
2019-04-26T03:15:24.569Z,21.90
2019-04-26T03:18:24.120Z,23.07
2019-04-26T03:21:39.928Z,21.97
2019-04-26T03:24:22.271Z,21.23
2019-04-26T03:27:18.096Z,21.67
2019-04-26T03:30:19.234Z,22.20
2019-04-26T03:33:12.434Z,21.80
2019-04-26T03:36:11.762Z,22.50
2019-04-26T03:39:28.891Z,22.73
2019-04-26T03:42:44.888Z,21.47
2019-04-26T03:45:40.760Z,22.50
2019-04-26T03:48:26.333Z,22.40
2019-04-26T03:51:27.334Z,23.27
2019-04-26T03:54:32.542Z,22.07
2019-04-26T03:57:44.823Z,23.33
2019-04-26T04:00:23.133Z,21.90
2019-04-26T04:03:27.879Z,23.33
2019-04-26T04:06:05.194Z,23.93
2019-04-26T04:08:53.795Z,23.70
2019-04-26T04:11:40.812Z,24.30
2019-04-26T04:14:45.118Z,23.23
2019-04-26T04:17:43.811Z,23.07
2019-04-26T04:20:50.877Z,22.90
2019-04-26T04:23:39.823Z,21.83
2019-04-26T04:26:17.588Z,21.90
2019-04-26T04:29:04.662Z,21.17
2019-04-26T04:31:45.756Z,22.93
2019-04-26T04:34:28.085Z,23.43
2019-04-26T04:37:04.649Z,22.60
2019-04-26T04:40:12.435Z,21.47
2019-04-26T04:42:59.915Z,22.17
2019-04-26T04:45:58.774Z,21.80
2019-04-26T04:49:15.825Z,22.23
2019-04-26T04:52:12.632Z,20.87
2019-04-26T04:55:07.727Z,21.20
2019-04-26T04:57:58.471Z,21.23
2019-04-26T05:00:54.335Z,19.03
2019-04-26T05:03:51.060Z,19.67
2019-04-26T05:06:49.045Z,19.47
2019-04-26T05:09:31.701Z,18.47
2019-04-26T05:12:08.276Z,18.33
2019-04-26T05:15:10.196Z,17.93
2019-04-26T05:17:55.829Z,18.87
2019-04-26T05:21:07.001Z,17.93
2019-04-26T05:24:23.836Z,17.53
2019-04-26T05:27:10.719Z,17.53
2019-04-26T05:30:00.967Z,18.70
2019-04-26T05:32:52.787Z,18.07
2019-04-26T05:35:56.022Z,18.87
2019-04-26T05:39:08.729Z,17.60
2019-04-26T05:42:51.747Z,18.97
2019-04-26T05:46:07.876Z,19.87
2019-04-26T05:48:57.978Z,19.87
2019-04-26T05:52:00.501Z,19.57
2019-04-26T05:55:12.924Z,21.83
2019-04-26T05:58:24.821Z,20.73
2019-04-26T06:01:59.056Z,22.27
2019-04-26T06:04:49.256Z,22.80
2019-04-26T06:08:03.614Z,22.23
2019-04-26T06:10:46.567Z,22.03
2019-04-26T06:13:57.857Z,22.50
2019-04-26T06:16:57.601Z,23.67
2019-04-26T06:19:57.315Z,23.53
2019-04-26T06:22:53.674Z,23.53
2019-04-26T06:26:29.127Z,24.70
2019-04-26T06:29:17.248Z,23.93
2019-04-26T06:32:13.703Z,23.00
2019-04-26T06:35:14.631Z,24.57
2019-04-26T06:38:43.523Z,25.50
2019-04-26T06:42:00.774Z,25.20
2019-04-26T06:45:17.983Z,24.63
2019-04-26T06:48:08.024Z,25.83
2019-04-26T06:51:09.234Z,25.67
2019-04-26T06:54:10.578Z,25.03
2019-04-26T06:57:13.760Z,26.10
2019-04-26T06:59:57.427Z,24.80
2019-04-26T07:03:05.713Z,24.90
2019-04-26T07:05:46.794Z,25.03
2019-04-26T07:08:33.211Z,26.07
2019-04-26T07:11:46.264Z,24.97
2019-04-26T07:15:03.829Z,25.53
2019-04-26T07:17:58.269Z,25.33
2019-04-26T07:20:38.929Z,23.83
2019-04-26T07:23:34.247Z,24.60
2019-04-26T07:26:43.535Z,25.00
2019-04-26T07:29:46.707Z,25.87
2019-04-26T07:32:49.572Z,25.70
2019-04-26T07:35:37.529Z,25.30
2019-04-26T07:38:17.255Z,25.17
2019-04-26T07:41:22.810Z,24.40
2019-04-26T07:44:39.003Z,24.73
2019-04-26T07:47:40.329Z,25.77
2019-04-26T07:50:39.544Z,25.03
2019-04-26T07:54:00.579Z,23.80
2019-04-26T07:56:49.140Z,24.60
2019-04-26T07:59:57.310Z,23.50
2019-04-26T08:02:44.287Z,23.90
2019-04-26T08:05:46.227Z,22.77
2019-04-26T08:08:22.839Z,23.37
2019-04-26T08:11:12.869Z,23.87
2019-04-26T08:13:52.250Z,23.40
2019-04-26T08:16:46.514Z,22.10
2019-04-26T08:19:23.544Z,21.80
2019-04-26T08:22:11.589Z,21.67
2019-04-26T08:24:34.866Z,22.43
2019-04-26T08:27:23.200Z,21.07
2019-04-26T08:29:56.238Z,22.00
2019-04-26T08:32:33.433Z,22.70
2019-04-26T08:35:16.885Z,21.97
2019-04-26T08:37:48.325Z,21.90
2019-04-26T08:40:30.709Z,21.73
2019-04-26T08:43:03.300Z,22.60
2019-04-26T08:45:45.599Z,21.87
2019-04-26T08:48:22.424Z,21.73
2019-04-26T08:50:58.265Z,20.97
2019-04-26T08:53:34.297Z,21.17
2019-04-26T08:56:11.613Z,20.37
2019-04-26T08:58:47.928Z,21.50
2019-04-26T09:01:37.120Z,20.40
2019-04-26T09:04:14.199Z,20.50
2019-04-26T09:06:52.624Z,20.13
2019-04-26T09:09:29.314Z,20.60
2019-04-26T09:12:08.266Z,19.57
2019-04-26T09:14:44.336Z,18.53
2019-04-26T09:17:16.311Z,18.77
2019-04-26T09:19:48.806Z,19.97
2019-04-26T09:22:37.553Z,17.80
2019-04-26T09:25:11.649Z,17.87
2019-04-26T09:27:54.367Z,17.10
2019-04-26T09:30:34.383Z,19.10
2019-04-26T09:33:11.790Z,17.53
2019-04-26T09:35:43.824Z,17.87
2019-04-26T09:38:16.341Z,17.87
2019-04-26T09:40:48.303Z,17.57
2019-04-26T09:43:30.887Z,17.10
2019-04-26T09:46:20.807Z,17.13
2019-04-26T09:48:54.416Z,16.97
2019-04-26T09:51:27.425Z,15.80
2019-04-26T09:53:59.511Z,14.27
2019-04-26T09:56:32.714Z,16.37
2019-04-26T09:59:05.622Z,14.77
2019-04-26T10:01:38.012Z,14.73
2019-04-26T10:04:09.997Z,15.77
2019-04-26T10:06:42.306Z,13.87
2019-04-26T10:09:21.049Z,14.93
2019-04-26T10:11:55.729Z,13.87
2019-04-26T10:14:38.150Z,14.80
2019-04-26T10:17:15.630Z,14.67
2019-04-26T10:19:50.054Z,14.83
2019-04-26T10:22:24.530Z,15.73
2019-04-26T10:24:56.689Z,14.40
2019-04-26T10:27:28.670Z,16.10
2019-04-26T10:30:07.719Z,16.47
2019-04-26T10:32:34.962Z,15.93
2019-04-26T10:35:08.030Z,16.77
2019-04-26T10:37:44.001Z,15.63
2019-04-26T10:40:14.420Z,15.77
2019-04-26T10:42:46.390Z,14.30
2019-04-26T10:45:18.487Z,15.63
2019-04-26T10:47:50.778Z,15.00
2019-04-26T10:50:23.229Z,15.17
2019-04-26T10:53:14.915Z,16.00
2019-04-26T10:55:54.851Z,14.73
2019-04-26T10:58:31.976Z,15.27
2019-04-26T11:01:06.545Z,15.47
2019-04-26T11:03:38.583Z,15.87
2019-04-26T11:06:10.667Z,15.47
2019-04-26T11:08:42.915Z,14.43
2019-04-26T11:11:14.853Z,13.80
2019-04-26T11:13:47.077Z,14.70
2019-04-26T11:16:19.120Z,14.93
2019-04-26T11:18:51.080Z,14.70
2019-04-26T11:21:23.041Z,14.20
2019-04-26T11:23:55.358Z,14.23
2019-04-26T11:26:27.338Z,13.80
2019-04-26T11:28:59.588Z,24.07
2019-04-26T11:31:31.863Z,26.43
2019-04-26T11:34:06.632Z,28.23
2019-04-26T11:36:41.790Z,25.33
2019-04-26T11:39:14.741Z,27.07
2019-04-26T11:41:47.156Z,26.83
2019-04-26T11:44:23.425Z,26.40
2019-04-26T11:46:55.175Z,27.23
2019-04-26T11:49:27.117Z,27.97
2019-04-26T11:52:02.923Z,27.67
2019-04-26T11:54:34.920Z,28.80
2019-04-26T11:57:08.281Z,29.83
2019-04-26T11:59:40.539Z,29.83
2019-04-26T12:02:16.082Z,32.07
2019-04-26T12:04:49.727Z,30.03
2019-04-26T12:07:30.016Z,29.37
2019-04-26T12:10:09.943Z,31.47
2019-04-26T12:12:43.191Z,30.63
2019-04-26T12:15:14.283Z,30.33
2019-04-26T12:17:58.044Z,28.80
2019-04-26T12:20:37.343Z,28.73
2019-04-26T12:23:13.640Z,29.77
2019-04-26T12:25:47.927Z,29.07
2019-04-26T12:28:17.318Z,28.27
2019-04-26T12:30:49.703Z,28.53
2019-04-26T12:33:21.641Z,30.30
2019-04-26T12:35:57.186Z,30.97
2019-04-26T12:38:28.587Z,29.10
2019-04-26T12:41:01.911Z,27.83
2019-04-26T12:43:34.856Z,28.63
2019-04-26T12:46:22.600Z,28.27
2019-04-26T12:48:55.344Z,29.30
2019-04-26T12:51:42.849Z,30.63
2019-04-26T12:54:16.294Z,28.87
2019-04-26T12:56:48.266Z,30.53
2019-04-26T12:59:22.511Z,29.30
2019-04-26T13:02:04.871Z,29.40
2019-04-26T13:04:35.850Z,30.60
2019-04-26T13:07:06.917Z,30.27
2019-04-26T13:09:38.468Z,29.67
2019-04-26T13:12:12.136Z,39.07
2019-04-26T13:15:00.949Z,31.23
2019-04-26T13:17:35.792Z,28.77
2019-04-26T13:20:08.540Z,30.17
2019-04-26T13:22:46.128Z,29.50
2019-04-26T13:25:20.289Z,30.03
2019-04-26T13:27:48.141Z,30.63
2019-04-26T13:30:40.095Z,34.20
2019-04-26T13:33:11.345Z,33.80
2019-04-26T13:35:46.682Z,34.30
2019-04-26T13:38:17.182Z,34.60
2019-04-26T13:40:49.712Z,36.90
2019-04-26T13:43:22.700Z,33.97
2019-04-26T13:46:02.957Z,34.63
2019-04-26T13:49:04.042Z,37.00
2019-04-26T13:51:38.311Z,36.67
2019-04-26T13:54:10.287Z,36.93
2019-04-26T13:56:42.551Z,38.40
2019-04-26T13:59:14.884Z,37.20
2019-04-26T14:01:47.290Z,36.50
2019-04-26T14:04:19.585Z,35.43
2019-04-26T14:06:52.706Z,36.37
2019-04-26T14:09:25.126Z,36.23
2019-04-26T14:11:58.074Z,32.73
2019-04-26T14:14:34.235Z,34.47
2019-04-26T14:17:04.351Z,33.77
2019-04-26T14:19:53.750Z,34.30
2019-04-26T14:22:27.350Z,35.10
2019-04-26T14:25:04.156Z,35.53
2019-04-26T14:27:38.056Z,34.70
2019-04-26T14:30:10.795Z,34.77
2019-04-26T14:32:43.116Z,32.23
2019-04-26T14:35:17.134Z,30.80
2019-04-26T14:37:49.925Z,31.73
2019-04-26T14:40:22.165Z,31.13
2019-04-26T14:43:05.999Z,33.47
2019-04-26T14:45:28.169Z,32.80
2019-04-26T14:48:04.007Z,31.03
2019-04-26T14:50:34.032Z,32.67
2019-04-26T14:53:06.312Z,30.87
2019-04-26T14:55:38.254Z,30.70
2019-04-26T14:58:10.281Z,32.03
2019-04-26T15:00:45.697Z,31.77
2019-04-26T15:03:37.217Z,31.00
2019-04-26T15:06:16.793Z,31.43
2019-04-26T15:08:50.653Z,31.17
2019-04-26T15:11:23.043Z,32.13
2019-04-26T15:13:55.143Z,30.30
2019-04-26T15:16:27.363Z,25.10
2019-04-26T15:19:00.093Z,24.77
2019-04-26T15:21:34.364Z,23.27
2019-04-26T15:24:06.131Z,22.47
2019-04-26T15:26:38.100Z,20.97
2019-04-26T15:29:12.582Z,21.90
2019-04-26T15:31:44.139Z,21.33
2019-04-26T15:34:19.269Z,20.70
2019-04-26T15:36:49.773Z,20.23
2019-04-26T15:39:26.195Z,17.73
2019-04-26T15:42:17.703Z,17.53
2019-04-26T15:45:03.496Z,17.20
2019-04-26T15:47:43.455Z,16.30
2019-04-26T15:53:06.723Z,15.70
2019-04-26T15:55:40.265Z,15.60
2019-04-26T15:58:12.852Z,16.53
2019-04-26T16:00:44.869Z,17.07
2019-04-26T16:03:17.147Z,15.40
2019-04-26T16:05:49.429Z,15.73
2019-04-26T16:08:22.830Z,15.40
2019-04-26T16:11:12.928Z,12.87
2019-04-26T16:13:51.392Z,13.40
2019-04-26T16:16:20.690Z,12.93
2019-04-26T16:18:55.457Z,14.00
2019-04-26T16:21:25.898Z,13.13
2019-04-26T16:23:58.589Z,11.00
2019-04-26T16:26:30.567Z,10.63
2019-04-26T16:29:04.540Z,9.87
2019-04-26T16:31:56.491Z,9.87
2019-04-26T16:34:41.478Z,9.87
2019-04-26T16:37:14.957Z,10.57
2019-04-26T16:39:48.718Z,9.37
2019-04-26T16:42:20.925Z,9.03
2019-04-26T16:44:55.136Z,9.57
2019-04-26T16:47:26.542Z,9.50
2019-04-26T16:50:01.256Z,10.37
2019-04-26T16:52:33.683Z,9.13
2019-04-26T16:55:17.794Z,9.00
2019-04-26T16:57:53.289Z,9.10
2019-04-26T17:00:16.670Z,9.93
2019-04-26T17:02:49.529Z,9.07
2019-04-26T17:05:44.435Z,10.00
2019-04-26T17:07:58.942Z,9.43
2019-04-26T17:10:28.787Z,9.27
2019-04-26T17:13:03.041Z,9.83
2019-04-26T17:15:34.740Z,10.07
2019-04-26T17:18:06.683Z,9.20
2019-04-26T17:20:40.435Z,9.10
2019-04-26T17:23:14.024Z,9.03
2019-04-26T17:25:50.286Z,8.67
2019-04-26T17:28:26.229Z,8.40
2019-04-26T17:30:56.191Z,8.80
2019-04-26T17:33:29.159Z,8.50
2019-04-26T17:36:01.388Z,9.13
2019-04-26T17:38:35.215Z,8.47
2019-04-26T17:41:10.994Z,8.33
2019-04-26T17:43:46.778Z,8.40
2019-04-26T17:46:17.743Z,8.13
2019-04-26T17:48:49.342Z,7.60
2019-04-26T17:51:23.222Z,9.13
2019-04-26T17:54:18.876Z,10.07
2019-04-26T17:56:31.451Z,10.30
2019-04-26T17:59:08.993Z,11.80
2019-04-26T18:01:45.198Z,12.17
2019-04-26T18:04:11.394Z,12.27
2019-04-26T18:06:45.452Z,12.13
2019-04-26T18:09:38.203Z,11.67
2019-04-26T18:11:51.068Z,11.27
2019-04-26T18:14:29.944Z,11.40
2019-04-26T18:17:01.496Z,9.70
2019-04-26T18:19:50.104Z,10.30
2019-04-26T18:22:28.400Z,10.63
2019-04-26T18:25:04.267Z,10.23
2019-04-26T18:27:38.390Z,9.80
2019-04-26T18:30:26.804Z,10.07
2019-04-26T18:33:17.542Z,10.10
2019-04-26T18:35:55.694Z,9.80
2019-04-26T18:38:24.774Z,9.20
2019-04-26T18:41:00.924Z,9.17
2019-04-26T18:43:30.605Z,8.60
2019-04-26T18:46:06.566Z,8.50
2019-04-26T18:48:40.635Z,9.20
2019-04-26T18:51:12.295Z,8.17
2019-04-26T18:53:46.249Z,7.93
2019-04-26T18:56:18.220Z,8.03
2019-04-26T18:58:51.637Z,8.30
2019-04-26T19:01:23.830Z,9.23
2019-04-26T19:03:55.860Z,7.50
2019-04-26T19:06:31.806Z,7.20
2019-04-26T19:09:05.725Z,7.00
2019-04-26T19:11:37.160Z,7.00
2019-04-26T19:14:15.042Z,6.90
2019-04-26T19:16:56.862Z,6.53
2019-04-26T19:19:39.606Z,7.27
2019-04-26T19:22:15.880Z,6.33
2019-04-26T19:24:45.240Z,7.00
2019-04-26T19:27:22.405Z,6.67
2019-04-26T19:29:51.779Z,6.70
2019-04-26T19:32:23.944Z,7.20
2019-04-26T19:34:56.097Z,7.20
2019-04-26T19:37:30.360Z,7.03
2019-04-26T19:40:04.558Z,8.00
2019-04-26T19:42:35.333Z,8.13
2019-04-26T19:45:16.696Z,7.63
2019-04-26T19:47:52.035Z,7.87
2019-04-26T19:50:48.582Z,8.50
2019-04-26T19:53:24.701Z,8.70
2019-04-26T19:56:17.544Z,9.33
2019-04-26T19:58:50.698Z,9.03
2019-04-26T20:01:24.814Z,9.00
2019-04-26T20:03:56.846Z,9.07
2019-04-26T20:06:28.792Z,9.80
2019-04-26T20:09:01.953Z,9.87
2019-04-26T20:11:34.113Z,9.70
2019-04-26T20:14:06.074Z,10.63
2019-04-26T20:16:40.754Z,10.47
2019-04-26T20:19:15.335Z,10.10
2019-04-26T20:21:49.135Z,10.43
2019-04-26T20:24:19.570Z,10.07
2019-04-26T20:26:52.504Z,11.23
2019-04-26T20:29:24.461Z,11.77
2019-04-26T20:32:09.977Z,10.87
2019-04-26T20:34:45.254Z,11.70
2019-04-26T20:37:22.856Z,12.53
2019-04-26T20:39:55.857Z,13.57
2019-04-26T20:42:25.117Z,12.83
2019-04-26T20:44:57.397Z,13.43
2019-04-26T20:47:29.377Z,14.03
2019-04-26T20:50:03.059Z,13.07
2019-04-26T20:52:35.196Z,14.50
2019-04-26T20:55:08.230Z,13.30
2019-04-26T20:57:42.721Z,13.97
2019-04-26T21:00:14.481Z,13.30
2019-04-26T21:02:46.488Z,12.67
2019-04-26T21:05:18.440Z,12.30
2019-04-26T21:07:51.082Z,12.77
2019-04-26T21:10:25.642Z,12.17
2019-04-26T21:12:57.109Z,12.17
2019-04-26T21:15:29.061Z,11.97
2019-04-26T21:18:04.054Z,11.63
2019-04-26T21:20:36.495Z,11.10
2019-04-26T21:23:08.789Z,11.73
2019-04-26T21:25:45.333Z,10.63
2019-04-26T21:28:18.926Z,11.20
2019-04-26T21:30:52.826Z,11.43
2019-04-26T21:33:35.886Z,10.63
2019-04-26T21:36:07.534Z,11.10
2019-04-26T21:38:50.131Z,11.37
2019-04-26T21:41:24.024Z,10.10
2019-04-26T21:43:56.062Z,11.37
2019-04-26T21:46:29.102Z,10.83
2019-04-26T21:49:01.017Z,10.80
2019-04-26T21:51:34.017Z,10.10
2019-04-26T21:54:06.233Z,9.90
2019-04-26T21:56:38.170Z,9.87
2019-04-26T21:59:10.135Z,10.03
2019-04-26T22:01:43.517Z,10.33
2019-04-26T22:04:15.704Z,10.37
2019-04-26T22:06:47.957Z,9.57
2019-04-26T22:09:36.767Z,9.73
2019-04-26T22:12:09.100Z,11.37
2019-04-26T22:14:43.998Z,10.47
2019-04-26T22:17:30.125Z,11.33
2019-04-26T22:20:16.260Z,12.00
2019-04-26T22:22:52.917Z,11.77
2019-04-26T22:25:26.753Z,11.37
2019-04-26T22:28:00.566Z,11.90
2019-04-26T22:30:33.146Z,12.30
2019-04-26T22:33:05.689Z,12.77
2019-04-26T22:35:38.241Z,12.30
2019-04-26T22:38:10.438Z,13.63
2019-04-26T22:40:43.714Z,11.80
2019-04-26T22:43:29.926Z,12.30
2019-04-26T22:46:04.977Z,12.50
2019-04-26T22:48:39.077Z,12.57
2019-04-26T22:51:11.334Z,12.60
2019-04-26T22:53:43.415Z,11.50
2019-04-26T22:56:15.863Z,11.70
2019-04-26T22:58:48.135Z,11.83
2019-04-26T23:01:20.098Z,12.27
2019-04-26T23:03:53.250Z,13.23
2019-04-26T23:06:25.864Z,12.63
2019-04-26T23:08:57.831Z,13.43
2019-04-26T23:11:30.411Z,13.20
2019-04-26T23:14:18.847Z,14.23
2019-04-26T23:17:04.193Z,13.93
2019-04-26T23:19:35.797Z,14.70
2019-04-26T23:22:09.710Z,15.97
2019-04-26T23:24:42.776Z,17.07
2019-04-26T23:27:20.604Z,16.93
2019-04-26T23:29:49.842Z,15.60
2019-04-26T23:32:23.456Z,18.23
2019-04-26T23:34:58.310Z,17.60
2019-04-26T23:37:29.573Z,17.47
2019-04-26T23:40:01.538Z,19.20
2019-04-26T23:42:33.817Z,18.33
2019-04-26T23:45:10.687Z,19.17
2019-04-26T23:47:41.327Z,17.53
2019-04-26T23:50:14.156Z,18.77
2019-04-26T23:52:49.278Z,19.67
2019-04-26T23:55:19.876Z,18.83
2019-04-26T23:57:53.351Z,20.17
